Time;durP1;ratioP1;P1;durP2;ratioP2;P2;SDS_P1;SDS_P2;PMS_P1;PMS_P2;Temp;Humidity;BMP_temperature;BMP_pressure;BME280_temperature;BME280_humidity;BME280_pressure;Samples;Min_cycle;Max_cycle;Signal;HPM_P1;HPM_P2
2022/10/03 00:01:16;;;;;;;0.50;0.40;;;7.00;99.90;;;;;;5073635;28;20531;-80
2022/10/03 00:03:46;;;;;;;0.60;0.50;;;7.00;99.90;;;;;;5065657;28;20440;-80
2022/10/03 00:06:24;;;;;;;0.63;0.63;;;7.00;99.90;;;;;;5074011;28;20430;-80
2022/10/03 00:09:14;;;;;;;0.65;0.65;;;7.00;99.90;;;;;;5073746;28;20427;-80
2022/10/03 00:12:06;;;;;;;0.70;0.63;;;7.00;99.90;;;;;;5073798;28;20906;-80
2022/10/03 00:14:58;;;;;;;0.60;0.60;;;7.00;99.90;;;;;;5073425;28;20431;-80
2022/10/03 00:17:49;;;;;;;0.50;0.50;;;6.90;99.90;;;;;;5073965;28;20431;-81
2022/10/03 00:20:18;;;;;;;0.33;0.30;;;6.80;99.90;;;;;;5073868;28;20431;-81
2022/10/03 00:22:58;;;;;;;0.50;0.50;;;6.80;99.90;;;;;;5073067;28;20419;-81
2022/10/03 00:25:38;;;;;;;0.38;0.38;;;6.90;99.90;;;;;;5073615;28;20430;-80
2022/10/03 00:28:26;;;;;;;1.60;0.60;;;6.90;99.90;;;;;;5073629;28;20439;-80
2022/10/03 00:31:13;;;;;;;0.88;0.88;;;7.00;99.90;;;;;;5073760;28;20453;-80
2022/10/03 00:33:52;;;;;;;0.70;0.70;;;7.20;99.90;;;;;;5072079;28;20427;-80
2022/10/03 00:36:33;;;;;;;0.43;0.43;;;7.40;99.90;;;;;;5073355;28;20438;-81
2022/10/03 00:39:19;;;;;;;0.50;0.50;;;7.40;99.90;;;;;;5073360;28;20785;-81
2022/10/03 00:42:07;;;;;;;0.50;0.50;;;7.30;99.90;;;;;;5073552;28;20505;-81
2022/10/03 00:44:43;;;;;;;0.38;0.38;;;7.00;99.90;;;;;;5073054;28;20422;-81
2022/10/03 00:47:42;;;;;;;0.40;0.40;;;6.80;99.90;;;;;;5073273;28;20427;-81
2022/10/03 00:50:17;;;;;;;0.40;0.40;;;6.50;99.90;;;;;;5073162;28;20450;-81
2022/10/03 00:53:09;;;;;;;0.60;0.60;;;6.30;99.90;;;;;;5074973;28;20427;-82
2022/10/03 00:55:51;;;;;;;0.63;0.63;;;6.30;99.90;;;;;;5065718;28;20424;-82
2022/10/03 00:58:46;;;;;;;0.60;0.60;;;6.20;99.90;;;;;;5073391;28;20438;-81
2022/10/03 01:01:26;;;;;;;0.60;0.60;;;6.10;99.90;;;;;;5072765;28;20428;-81
2022/10/03 01:04:05;;;;;;;0.55;0.55;;;6.00;99.90;;;;;;5071602;28;20452;-80
2022/10/03 01:07:02;;;;;;;0.75;0.60;;;6.00;99.90;;;;;;5071708;28;20431;-80
2022/10/03 01:10:10;;;;;;;0.50;0.45;;;6.00;99.90;;;;;;5072049;28;20771;-81
2022/10/03 01:12:49;;;;;;;1.20;0.50;;;6.00;99.90;;;;;;5072730;28;20427;-80
2022/10/03 01:15:53;;;;;;;0.30;0.30;;;6.00;99.90;;;;;;5071194;28;20446;-81
2022/10/03 01:18:37;;;;;;;0.45;0.45;;;5.90;99.90;;;;;;5073311;28;20890;-81
2022/10/03 01:21:52;;;;;;;0.50;0.50;;;6.00;99.90;;;;;;5071153;28;20507;-81
2022/10/03 01:24:54;;;;;;;0.50;0.50;;;6.00;99.90;;;;;;5010805;28;20437;-81
2022/10/03 01:30:21;;;;;;;0.50;0.50;;;5.90;99.90;;;;;;5010774;28;20506;-81
2022/10/03 01:30:30;;;;;;;0.50;0.50;;;5.90;99.90;;;;;;4995265;28;20556;-80
2022/10/03 01:33:22;;;;;;;0.30;0.30;;;5.90;99.90;;;;;;5010407;28;20436;-80
2022/10/03 01:36:22;;;;;;;1.03;0.70;;;5.80;99.90;;;;;;5010668;28;20437;-81
2022/10/03 01:39:07;;;;;;;0.50;0.50;;;5.70;99.90;;;;;;5010612;28;20552;-81
2022/10/03 01:41:44;;;;;;;0.40;0.40;;;5.60;99.90;;;;;;4994267;28;20439;-80
2022/10/03 01:44:29;;;;;;;0.40;0.40;;;5.60;99.90;;;;;;5010343;28;20429;-80
2022/10/03 01:47:18;;;;;;;0.35;0.35;;;5.50;99.90;;;;;;5010603;28;20428;-81
2022/10/03 01:49:51;;;;;;;0.90;0.80;;;5.50;99.90;;;;;;4993889;28;20772;-81
2022/10/03 01:52:47;;;;;;;0.45;0.45;;;5.50;99.90;;;;;;4993684;28;20428;-81
2022/10/03 01:55:44;;;;;;;0.43;0.43;;;5.60;99.90;;;;;;5007515;28;20455;-81
2022/10/03 01:58:31;;;;;;;0.43;0.43;;;5.70;99.90;;;;;;5010188;28;20420;-81
2022/10/03 02:01:20;;;;;;;0.50;0.50;;;5.60;99.90;;;;;;5045151;28;20424;-81
2022/10/03 02:04:10;;;;;;;0.40;0.40;;;5.60;99.90;;;;;;5072120;28;20458;-81
2022/10/03 02:07:01;;;;;;;0.40;0.40;;;5.50;99.90;;;;;;5072221;28;20423;-81
2022/10/03 02:09:53;;;;;;;0.30;0.30;;;5.40;99.90;;;;;;5072179;28;20779;-81
2022/10/03 02:12:55;;;;;;;0.60;0.60;;;5.40;99.90;;;;;;5072364;28;20810;-82
2022/10/03 02:16:09;;;;;;;0.32;0.32;;;5.50;99.90;;;;;;5070559;28;20898;-81
2022/10/03 02:18:49;;;;;;;0.37;0.37;;;5.50;99.90;;;;;;5010134;28;20860;-80
2022/10/03 02:21:28;;;;;;;0.30;0.30;;;5.40;99.90;;;;;;5009723;28;20888;-80
2022/10/03 02:24:13;;;;;;;0.43;0.43;;;5.40;99.90;;;;;;5009797;28;20425;-81
2022/10/03 02:27:01;;;;;;;0.30;0.30;;;5.30;99.90;;;;;;5010116;28;20429;-80
2022/10/03 02:29:42;;;;;;;0.40;0.40;;;5.20;99.90;;;;;;5009526;28;20922;-81
2022/10/03 02:32:57;;;;;;;0.40;0.40;;;5.40;99.90;;;;;;5009928;28;20444;-80
2022/10/03 02:35:42;;;;;;;0.40;0.40;;;5.50;99.90;;;;;;5009764;28;20436;-81
2022/10/03 02:38:24;;;;;;;0.20;0.20;;;5.50;99.90;;;;;;5009774;28;20448;-81
2022/10/03 02:41:12;;;;;;;0.40;0.40;;;5.60;99.90;;;;;;4993472;28;20444;-81
2022/10/03 02:44:09;;;;;;;0.50;0.50;;;5.60;99.90;;;;;;5009361;28;20434;-81
2022/10/03 02:46:45;;;;;;;0.50;0.50;;;5.60;99.90;;;;;;4995957;28;20428;-81
2022/10/03 02:49:32;;;;;;;0.50;0.50;;;5.60;99.90;;;;;;4993505;28;20437;-81
2022/10/03 02:52:01;;;;;;;0.90;0.90;;;5.60;99.90;;;;;;5009799;28;20429;-81
2022/10/03 02:55:04;;;;;;;0.57;0.57;;;5.50;99.90;;;;;;5051491;28;20436;-81
2022/10/03 02:57:47;;;;;;;0.53;0.53;;;5.40;99.90;;;;;;5071642;28;20426;-81
2022/10/03 03:00:30;;;;;;;0.55;0.55;;;5.40;99.90;;;;;;5071470;28;20462;-81
2022/10/03 03:03:23;;;;;;;0.55;0.55;;;5.50;99.90;;;;;;5071117;28;20553;-81
2022/10/03 03:06:22;;;;;;;0.70;0.70;;;5.60;99.90;;;;;;5071541;28;20434;-81
2022/10/03 03:09:06;;;;;;;0.60;0.60;;;5.70;99.90;;;;;;5072575;28;20473;-81
2022/10/03 03:12:00;;;;;;;0.50;0.50;;;5.70;99.90;;;;;;5072491;28;20431;-81
2022/10/03 03:15:00;;;;;;;0.95;0.70;;;5.70;99.90;;;;;;5071455;28;20426;-81
2022/10/03 03:17:43;;;;;;;1.23;1.17;;;5.80;99.90;;;;;;5072107;28;20428;-81
2022/10/03 03:20:40;;;;;;;0.77;0.77;;;5.90;99.90;;;;;;5072539;28;20439;-81
2022/10/03 03:23:28;;;;;;;0.93;0.93;;;6.00;99.90;;;;;;5072359;28;20423;-81
2022/10/03 03:26:03;;;;;;;2.10;1.02;;;6.00;99.90;;;;;;5070798;28;20428;-81
2022/10/03 03:29:20;;;;;;;0.57;0.57;;;6.00;99.90;;;;;;5072438;28;20431;-81
2022/10/03 03:32:03;;;;;;;1.67;0.95;;;6.00;99.90;;;;;;4994785;28;20437;-81
2022/10/03 03:34:42;;;;;;;0.68;0.68;;;5.90;99.90;;;;;;5013154;28;20954;-81
2022/10/03 03:37:18;;;;;;;0.90;0.90;;;5.80;99.90;;;;;;5013903;28;20425;-81
2022/10/03 03:40:28;;;;;;;0.63;0.63;;;5.60;99.90;;;;;;5013459;28;20437;-81
2022/10/03 03:43:18;;;;;;;0.63;0.63;;;5.50;99.90;;;;;;5016657;28;20429;-81
2022/10/03 03:46:17;;;;;;;1.55;0.82;;;5.40;99.90;;;;;;5016973;28;20543;-81
2022/10/03 03:49:17;;;;;;;0.68;0.68;;;5.30;99.90;;;;;;5018268;28;20439;-81
2022/10/03 03:52:08;;;;;;;1.05;0.95;;;5.30;99.90;;;;;;5016694;28;20429;-82
2022/10/03 03:54:47;;;;;;;0.80;0.80;;;5.20;99.90;;;;;;4997980;28;20469;-81
2022/10/03 03:57:16;;;;;;;1.05;0.90;;;5.20;99.90;;;;;;5014126;28;20942;-81
2022/10/03 03:59:54;;;;;;;0.82;0.82;;;5.30;99.90;;;;;;5014802;28;20425;-81
2022/10/03 04:02:25;;;;;;;0.70;0.70;;;5.40;99.90;;;;;;5014135;28;20435;-81
2022/10/03 04:05:19;;;;;;;0.30;0.30;;;5.60;99.90;;;;;;5027866;28;20423;-82
2022/10/03 04:08:20;;;;;;;1.30;0.77;;;5.90;99.90;;;;;;5074483;28;20432;-82
2022/10/03 04:11:07;;;;;;;0.50;0.50;;;6.10;99.90;;;;;;5075114;28;20427;-82
2022/10/03 04:13:37;;;;;;;0.50;0.20;;;6.30;99.90;;;;;;5073968;28;20497;-82
2022/10/03 04:19:50;;;;;;;0.37;0.37;;;6.30;99.90;;;;;;5052476;28;20434;-80
2022/10/03 04:22:29;;;;;;;0.40;0.40;;;6.30;99.90;;;;;;5077015;28;20442;-81
2022/10/03 04:25:36;;;;;;;1.38;0.82;;;6.40;99.90;;;;;;5076801;28;20427;-81
2022/10/03 04:28:37;;;;;;;0.60;0.60;;;6.50;99.90;;;;;;5076077;28;20475;-81
2022/10/03 04:31:24;;;;;;;0.98;0.50;;;6.60;99.90;;;;;;5065592;28;20423;-81
2022/10/03 04:34:17;;;;;;;0.60;0.60;;;6.70;99.90;;;;;;5073501;28;20442;-81
2022/10/03 04:36:58;;;;;;;0.50;0.28;;;6.80;99.90;;;;;;5074236;28;20442;-81
2022/10/03 04:39:39;;;;;;;0.30;0.30;;;6.80;99.90;;;;;;5074097;28;20427;-81
2022/10/03 04:42:27;;;;;;;0.30;0.30;;;6.90;99.90;;;;;;5073861;28;20427;-81
2022/10/03 04:45:37;;;;;;;0.40;0.40;;;6.90;99.90;;;;;;5072505;28;20435;-81
2022/10/03 04:48:17;;;;;;;0.68;0.68;;;6.90;99.90;;;;;;5075525;28;20427;-81
2022/10/03 04:51:02;;;;;;;0.50;0.50;;;6.90;99.90;;;;;;5076564;28;20423;-81
2022/10/03 04:53:39;;;;;;;0.50;0.50;;;6.90;99.90;;;;;;5077333;28;20423;-81
2022/10/03 04:56:30;;;;;;;0.63;0.63;;;6.90;99.90;;;;;;5080860;28;20492;-81
2022/10/03 04:59:07;;;;;;;0.43;0.43;;;7.00;99.90;;;;;;5081109;28;20427;-80
2022/10/03 05:01:46;;;;;;;1.30;1.20;;;7.00;99.90;;;;;;5080889;28;20432;-81
2022/10/03 05:04:25;;;;;;;0.60;0.60;;;7.00;99.90;;;;;;5083950;28;20427;-80
2022/10/03 05:07:03;;;;;;;0.70;0.43;;;7.00;99.90;;;;;;5079494;28;20934;-80
2022/10/03 05:09:50;;;;;;;0.60;0.60;;;7.00;99.90;;;;;;5081046;28;20549;-81
2022/10/03 05:12:39;;;;;;;1.00;0.63;;;6.90;99.90;;;;;;5076697;28;20424;-81
2022/10/03 05:15:32;;;;;;;0.90;0.50;;;6.80;99.90;;;;;;5074398;28;20431;-81
2022/10/03 05:18:24;;;;;;;0.63;0.63;;;6.80;99.90;;;;;;5073339;28;20427;-81
2022/10/03 05:21:23;;;;;;;0.77;0.70;;;6.90;99.90;;;;;;5074107;28;20423;-81
2022/10/03 05:24:06;;;;;;;0.70;0.70;;;7.00;99.90;;;;;;5072446;28;20427;-82
2022/10/03 05:26:52;;;;;;;0.73;0.73;;;7.20;99.90;;;;;;5072555;28;20435;-82
2022/10/03 05:29:34;;;;;;;0.68;0.68;;;7.50;99.90;;;;;;5072224;28;20435;-82
2022/10/03 05:32:22;;;;;;;0.80;0.60;;;7.70;99.90;;;;;;5071975;28;20435;-82
2022/10/03 05:35:10;;;;;;;0.95;0.82;;;7.90;99.90;;;;;;5072030;28;20427;-82
2022/10/03 05:37:55;;;;;;;0.60;0.60;;;7.90;99.90;;;;;;5072253;28;20434;-83
2022/10/03 05:40:35;;;;;;;0.40;0.40;;;7.90;99.90;;;;;;5070845;28;20975;-83
2022/10/03 05:43:20;;;;;;;0.77;0.77;;;8.00;99.90;;;;;;5071742;28;20428;-82
2022/10/03 05:46:25;;;;;;;1.60;0.82;;;8.00;99.90;;;;;;5072425;28;20527;-83
2022/10/03 05:49:21;;;;;;;1.10;0.95;;;8.10;99.90;;;;;;5072097;28;20435;-83
2022/10/03 05:52:07;;;;;;;1.00;1.00;;;8.10;99.90;;;;;;5071819;28;20437;-82
2022/10/03 05:55:11;;;;;;;0.90;0.90;;;8.30;99.90;;;;;;5071631;28;20458;-83
2022/10/03 05:57:58;;;;;;;0.80;0.80;;;8.40;99.90;;;;;;5071792;28;20485;-83
2022/10/03 06:00:46;;;;;;;1.13;1.02;;;8.50;99.90;;;;;;5071949;28;20435;-82
2022/10/03 06:03:41;;;;;;;0.70;0.70;;;8.60;99.90;;;;;;5071793;28;20431;-83
2022/10/03 06:06:18;;;;;;;0.50;0.50;;;8.70;99.90;;;;;;5070753;28;20434;-83
2022/10/03 06:08:52;;;;;;;1.20;0.60;;;8.80;99.90;;;;;;5071000;28;20451;-83
2022/10/03 06:11:55;;;;;;;0.52;0.43;;;8.90;99.90;;;;;;5072203;28;20419;-82
2022/10/03 06:14:56;;;;;;;0.80;0.80;;;8.90;99.90;;;;;;5070248;28;20419;-82
2022/10/03 06:17:54;;;;;;;0.80;0.80;;;9.10;99.90;;;;;;5071923;28;20427;-82
2022/10/03 06:21:03;;;;;;;2.45;0.80;;;9.20;99.90;;;;;;5070994;28;20916;-82
2022/10/03 06:23:56;;;;;;;0.70;0.70;;;9.30;99.90;;;;;;5071138;28;20423;-82
2022/10/03 06:26:36;;;;;;;0.50;0.50;;;9.40;99.90;;;;;;5071274;28;20436;-82
2022/10/03 06:29:37;;;;;;;1.40;1.27;;;9.50;99.90;;;;;;5071294;28;20913;-82
2022/10/03 06:32:44;;;;;;;0.75;0.75;;;9.60;99.90;;;;;;5070403;28;20434;-82
2022/10/03 06:35:51;;;;;;;0.90;0.90;;;9.70;99.90;;;;;;5071245;28;20774;-82
2022/10/03 06:38:52;;;;;;;0.77;0.77;;;9.90;99.90;;;;;;5071741;28;20438;-82
2022/10/03 06:41:45;;;;;;;0.93;0.90;;;10.00;99.90;;;;;;5071248;28;20430;-81
2022/10/03 06:44:28;;;;;;;0.80;0.80;;;10.10;99.90;;;;;;5070927;28;20832;-80
2022/10/03 06:47:14;;;;;;;1.20;0.90;;;10.20;99.90;;;;;;5071622;28;20439;-83
2022/10/03 06:50:00;;;;;;;0.75;0.75;;;10.20;99.90;;;;;;5071503;28;20535;-82
2022/10/03 06:53:01;;;;;;;0.77;0.77;;;10.30;99.90;;;;;;5070074;28;20431;-80
2022/10/03 06:55:52;;;;;;;1.10;1.00;;;10.30;99.90;;;;;;5071561;28;20434;-80
2022/10/03 06:58:26;;;;;;;0.80;0.80;;;10.40;99.90;;;;;;5071534;28;20782;-81
2022/10/03 07:00:57;;;;;;;0.55;0.55;;;10.50;99.90;;;;;;5071200;28;20514;-81
2022/10/03 07:03:45;;;;;;;1.10;1.10;;;10.60;99.90;;;;;;5071325;28;20913;-81
2022/10/03 07:06:50;;;;;;;0.60;0.60;;;10.60;99.90;;;;;;5071549;28;20431;-80
2022/10/03 07:09:36;;;;;;;0.90;0.65;;;10.80;99.90;;;;;;5075238;28;20441;-81
2022/10/03 07:12:12;;;;;;;1.27;1.10;;;10.90;99.90;;;;;;5074817;28;20434;-81
2022/10/03 07:15:17;;;;;;;0.93;0.93;;;10.80;99.90;;;;;;5074275;28;20431;-80
2022/10/03 07:17:53;;;;;;;1.35;0.60;;;11.00;99.90;;;;;;5074736;28;20442;-81
2022/10/03 07:20:48;;;;;;;0.95;0.90;;;11.20;99.90;;;;;;5074892;28;20446;-81
2022/10/03 07:23:45;;;;;;;2.50;1.20;;;11.40;99.90;;;;;;5074269;28;20427;-81
2022/10/03 07:26:20;;;;;;;0.60;0.60;;;11.70;99.90;;;;;;5074824;28;20763;-83
2022/10/03 07:29:24;;;;;;;1.02;1.00;;;11.90;99.90;;;;;;5073682;28;20908;-81
2022/10/03 07:31:56;;;;;;;0.90;0.90;;;12.10;99.90;;;;;;5074698;28;20438;-82
2022/10/03 07:34:53;;;;;;;1.20;1.10;;;12.30;99.90;;;;;;5075843;28;20435;-82
2022/10/03 07:40:31;;;;;;;1.33;1.33;;;12.50;99.90;;;;;;5074067;28;20445;-81
2022/10/03 07:43:20;;;;;;;1.50;1.07;;;12.50;99.90;;;;;;5073028;28;20433;-81
2022/10/03 07:46:24;;;;;;;1.08;1.00;;;12.40;99.90;;;;;;5074437;28;20439;-82
2022/10/03 07:49:20;;;;;;;1.57;1.47;;;12.70;99.90;;;;;;5075021;28;20910;-82
2022/10/03 07:51:53;;;;;;;1.15;1.05;;;12.90;99.90;;;;;;5074217;28;20435;-83
2022/10/03 07:55:21;;;;;;;1.92;1.70;;;13.10;99.90;;;;;;5073894;28;20438;-82
2022/10/03 07:58:41;;;;;;;1.70;1.43;;;13.30;99.90;;;;;;5071934;28;20442;-82
2022/10/03 08:01:37;;;;;;;1.70;1.60;;;13.50;99.90;;;;;;5060924;28;20420;-82
2022/10/03 08:04:25;;;;;;;1.67;1.50;;;13.60;99.90;;;;;;5071558;28;20473;-82
2022/10/03 08:07:11;;;;;;;1.30;1.20;;;13.60;99.90;;;;;;5072013;28;20846;-82
2022/10/03 08:10:08;;;;;;;2.00;1.90;;;13.50;99.90;;;;;;5071595;28;20427;-81
2022/10/03 08:12:41;;;;;;;1.75;1.63;;;13.60;99.90;;;;;;5071838;28;20427;-81
2022/10/03 08:15:26;;;;;;;3.13;1.67;;;13.90;99.90;;;;;;5071089;28;20423;-81
2022/10/03 08:18:21;;;;;;;1.80;1.70;;;14.00;99.90;;;;;;5071576;28;20426;-80
2022/10/03 08:20:57;;;;;;;1.58;1.48;;;14.00;99.90;;;;;;5072436;28;20423;-81
2022/10/03 08:24:02;;;;;;;2.05;1.52;;;13.90;99.90;;;;;;5071190;28;20481;-80
2022/10/03 08:26:50;;;;;;;1.42;1.33;;;13.80;99.90;;;;;;5054418;28;20420;-80
2022/10/03 08:29:52;;;;;;;1.50;1.40;;;14.00;99.90;;;;;;5072900;28;20470;-80
2022/10/03 08:32:46;;;;;;;1.25;1.08;;;14.20;99.90;;;;;;5072059;28;20432;-79
2022/10/03 08:35:20;;;;;;;1.70;1.27;;;14.30;99.90;;;;;;5072808;28;20435;-79
2022/10/03 08:38:05;;;;;;;1.00;1.00;;;14.70;99.90;;;;;;5072396;28;20424;-79
2022/10/03 08:40:52;;;;;;;1.33;1.33;;;15.20;99.90;;;;;;5073458;28;20431;-79
2022/10/03 08:43:50;;;;;;;1.47;1.37;;;15.80;99.90;;;;;;5072928;28;21003;-80
2022/10/03 08:47:00;;;;;;;1.50;1.00;;;15.60;99.90;;;;;;5073130;28;20431;-79
2022/10/03 08:49:57;;;;;;;1.17;1.10;;;15.40;99.90;;;;;;5072842;28;20514;-77
2022/10/03 08:52:37;;;;;;;0.88;0.88;;;15.80;99.90;;;;;;5073131;28;20859;-79
2022/10/03 08:55:44;;;;;;;1.40;1.05;;;16.40;99.90;;;;;;5071834;28;20885;-77
2022/10/03 08:58:35;;;;;;;1.30;1.00;;;16.70;99.90;;;;;;5073548;28;20519;-76
2022/10/03 09:01:44;;;;;;;1.42;1.33;;;16.80;99.90;;;;;;5072867;28;20427;-78
2022/10/03 09:04:48;;;;;;;1.40;1.15;;;16.70;99.90;;;;;;5072530;28;20431;-75
2022/10/03 09:07:41;;;;;;;1.20;0.80;;;16.80;99.90;;;;;;5072697;28;20437;-77
2022/10/03 09:10:37;;;;;;;0.90;0.90;;;16.80;99.90;;;;;;5071418;28;20438;-76
2022/10/03 09:13:22;;;;;;;1.45;1.35;;;16.70;99.90;;;;;;5071080;28;20503;-75
2022/10/03 09:16:33;;;;;;;1.90;1.20;;;16.40;99.90;;;;;;5071265;28;20423;-74
2022/10/03 09:19:24;;;;;;;0.55;0.55;;;16.40;99.90;;;;;;5072452;28;20485;-78
2022/10/03 09:22:12;;;;;;;0.73;0.73;;;16.60;99.90;;;;;;5072474;28;20489;-79
2022/10/03 09:25:19;;;;;;;1.70;0.88;;;17.00;99.90;;;;;;5071666;28;20891;-80
2022/10/03 09:28:04;;;;;;;1.90;0.88;;;17.30;99.90;;;;;;5072318;28;20797;-80
2022/10/03 09:31:02;;;;;;;1.70;0.90;;;17.40;99.90;;;;;;5071186;28;20431;-77
2022/10/03 09:33:54;;;;;;;1.13;1.10;;;17.30;99.90;;;;;;5071874;28;20496;-76
2022/10/03 09:36:29;;;;;;;0.75;0.75;;;17.50;99.90;;;;;;5072475;28;20431;-79
2022/10/03 09:39:20;;;;;;;0.87;0.87;;;17.90;99.90;;;;;;5071680;28;20496;-78
2022/10/03 09:42:35;;;;;;;1.00;1.00;;;17.80;99.90;;;;;;5071557;28;20498;-75
2022/10/03 09:45:13;;;;;;;0.65;0.65;;;17.60;99.90;;;;;;5021054;28;20431;-85
2022/10/03 09:48:09;;;;;;;1.40;0.83;;;17.80;99.90;;;;;;5052157;28;20879;-77
2022/10/03 09:50:52;;;;;;;0.77;0.77;;;17.60;99.90;;;;;;5068167;28;20428;-77
2022/10/03 09:54:00;;;;;;;0.65;0.65;;;17.80;99.90;;;;;;5070446;28;20423;-77
2022/10/03 09:57:01;;;;;;;0.80;0.80;;;18.00;99.90;;;;;;5070683;28;20434;-75
2022/10/03 10:00:01;;;;;;;2.10;0.90;;;18.30;99.90;;;;;;5070919;28;20430;-76
2022/10/03 10:02:44;;;;;;;0.70;0.70;;;18.70;99.90;;;;;;5071591;28;20438;-74
2022/10/03 10:05:29;;;;;;;0.97;0.90;;;19.00;99.90;;;;;;5069907;28;20428;-76
2022/10/03 10:08:03;;;;;;;0.60;0.60;;;19.10;99.90;;;;;;5071726;28;20516;-78
2022/10/03 10:10:45;;;;;;;1.30;0.68;;;19.40;99.90;;;;;;5070898;28;20433;-75
2022/10/03 10:13:45;;;;;;;0.70;0.70;;;19.30;99.90;;;;;;5069810;28;20478;-75
2022/10/03 10:16:44;;;;;;;0.65;0.65;;;18.90;99.90;;;;;;5070985;28;20424;-75
2022/10/03 10:19:23;;;;;;;1.30;0.80;;;19.00;99.90;;;;;;5070713;28;20435;-74
2022/10/03 10:22:08;;;;;;;0.80;0.70;;;19.30;99.90;;;;;;5071014;28;20605;-76
2022/10/03 10:24:54;;;;;;;0.80;0.50;;;19.40;99.90;;;;;;5072538;28;20435;-80
2022/10/03 10:27:35;;;;;;;0.30;0.30;;;19.90;99.90;;;;;;5071792;28;20439;-74
2022/10/03 10:30:24;;;;;;;0.93;0.70;;;20.50;99.90;;;;;;5070521;28;20438;-82
2022/10/03 10:33:12;;;;;;;1.08;0.60;;;20.80;99.90;;;;;;5071345;28;20980;-80
2022/10/03 10:36:14;;;;;;;0.63;0.63;;;21.00;99.90;;;;;;5071285;28;20427;-75
2022/10/03 10:39:01;;;;;;;0.60;0.60;;;20.80;99.90;;;;;;5070314;28;20428;-76
2022/10/03 10:41:55;;;;;;;0.40;0.40;;;20.70;99.90;;;;;;5071283;28;20428;-79
2022/10/03 10:44:34;;;;;;;0.50;0.50;;;20.40;99.90;;;;;;5074943;28;20427;-78
2022/10/03 10:47:13;;;;;;;1.00;0.80;;;20.50;99.90;;;;;;5075812;28;20434;-76
2022/10/03 10:50:01;;;;;;;0.70;0.70;;;20.30;99.90;;;;;;5074152;28;20431;-76
2022/10/03 10:53:06;;;;;;;0.60;0.60;;;19.60;99.90;;;;;;5068060;28;20434;-74
2022/10/03 10:55:51;;;;;;;0.85;0.85;;;19.30;99.90;;;;;;5075138;28;20435;-75
2022/10/03 10:58:44;;;;;;;1.30;0.85;;;18.80;99.90;;;;;;5078216;28;20441;-75
2022/10/03 11:01:25;;;;;;;0.63;0.63;;;18.20;99.90;;;;;;5074093;28;20431;-75
2022/10/03 11:04:01;;;;;;;0.75;0.75;;;18.00;99.90;;;;;;5074223;28;20778;-74
2022/10/03 11:06:47;;;;;;;1.20;1.10;;;18.00;99.90;;;;;;5075117;28;20434;-75
2022/10/03 11:09:30;;;;;;;0.70;0.52;;;18.50;99.90;;;;;;5073999;28;20435;-76
2022/10/03 11:12:02;;;;;;;0.65;0.65;;;18.90;99.90;;;;;;5074511;28;20427;-75
2022/10/03 11:14:40;;;;;;;0.80;0.80;;;19.20;99.90;;;;;;5073546;28;20431;-74
2022/10/03 11:17:46;;;;;;;0.80;0.80;;;20.00;99.90;;;;;;5055272;28;20429;-76
2022/10/03 11:20:37;;;;;;;0.70;0.70;;;20.30;99.90;;;;;;5052360;28;20437;-76
2022/10/03 11:23:41;;;;;;;0.50;0.50;;;20.10;99.90;;;;;;5053676;28;20513;-76
2022/10/03 11:26:46;;;;;;;1.10;0.80;;;20.00;99.90;;;;;;5052127;28;20433;-79
2022/10/03 11:29:37;;;;;;;0.93;0.93;;;19.30;99.90;;;;;;5052979;28;20498;-74
2022/10/03 11:32:10;;;;;;;0.77;0.77;;;18.60;99.90;;;;;;5053297;28;20437;-75
2022/10/03 11:35:05;;;;;;;0.68;0.68;;;18.30;99.90;;;;;;5052687;28;20429;-74
2022/10/03 11:37:39;;;;;;;0.63;0.63;;;17.90;99.90;;;;;;5053176;28;20429;-74
2022/10/03 11:40:31;;;;;;;0.90;0.90;;;17.80;99.90;;;;;;5062637;28;20432;-74
2022/10/03 11:43:32;;;;;;;0.70;0.70;;;17.50;99.90;;;;;;5072720;28;20435;-76
2022/10/03 11:46:26;;;;;;;0.70;0.70;;;17.70;99.90;;;;;;5073585;28;20430;-76
2022/10/03 11:49:00;;;;;;;0.70;0.70;;;18.30;99.90;;;;;;5073119;28;20453;-76
2022/10/03 11:51:49;;;;;;;0.93;0.93;;;19.70;99.90;;;;;;5071834;28;20787;-76
2022/10/03 11:54:27;;;;;;;0.60;0.60;;;20.90;99.90;;;;;;5071298;28;20450;-75
2022/10/03 11:57:05;;;;;;;0.50;0.50;;;21.60;99.90;;;;;;5073111;28;20427;-77
2022/10/03 11:59:38;;;;;;;0.68;0.68;;;21.60;99.90;;;;;;5071880;28;20427;-76
2022/10/03 12:02:31;;;;;;;1.20;0.80;;;21.40;99.90;;;;;;5072952;28;20436;-74
2022/10/03 12:05:01;;;;;;;0.60;0.60;;;21.00;99.90;;;;;;5070871;28;20506;-73
2022/10/03 12:10:51;;;;;;;0.98;0.98;;;19.30;99.90;;;;;;5072740;28;20431;-77
2022/10/03 12:13:37;;;;;;;1.13;0.98;;;18.70;99.90;;;;;;5072294;28;20432;-76
2022/10/03 12:16:13;;;;;;;1.30;1.10;;;18.40;99.90;;;;;;5072258;28;20442;-76
2022/10/03 12:18:43;;;;;;;1.13;1.00;;;18.40;99.90;;;;;;5072120;28;20902;-75
2022/10/03 12:21:38;;;;;;;1.77;1.00;;;18.10;99.90;;;;;;5073421;28;20485;-76
2022/10/03 12:24:20;;;;;;;0.75;0.75;;;18.00;99.90;;;;;;5070797;28;20510;-76
2022/10/03 12:27:10;;;;;;;1.10;0.73;;;18.00;99.90;;;;;;5071009;28;20427;-74
2022/10/03 12:29:44;;;;;;;1.20;1.05;;;18.00;99.90;;;;;;5072075;28;20946;-76
2022/10/03 12:32:27;;;;;;;0.70;0.70;;;18.20;99.90;;;;;;5071920;28;20500;-76
2022/10/03 12:34:59;;;;;;;0.90;0.90;;;18.40;99.90;;;;;;5072164;28;20443;-75
2022/10/03 12:37:43;;;;;;;1.20;0.80;;;18.60;99.90;;;;;;5071828;28;20439;-75
2022/10/03 12:40:19;;;;;;;0.98;0.85;;;18.50;99.90;;;;;;5052213;28;20983;-75
2022/10/03 12:42:57;;;;;;;1.00;1.00;;;18.50;99.90;;;;;;5069647;28;20942;-76
2022/10/03 12:45:48;;;;;;;0.80;0.80;;;18.60;99.90;;;;;;5072598;28;20427;-77
2022/10/03 12:48:44;;;;;;;0.75;0.75;;;18.70;99.90;;;;;;5071966;28;20518;-76
2022/10/03 12:51:41;;;;;;;0.73;0.73;;;18.80;99.90;;;;;;5071070;28;20440;-76
2022/10/03 12:54:32;;;;;;;0.60;0.60;;;18.80;99.90;;;;;;5063992;28;20427;-76
2022/10/03 12:57:19;;;;;;;0.60;0.60;;;18.80;99.90;;;;;;5071940;28;20433;-75
2022/10/03 13:00:26;;;;;;;0.77;0.77;;;18.80;99.90;;;;;;5072526;28;20423;-76
2022/10/03 13:03:16;;;;;;;0.75;0.75;;;18.80;99.90;;;;;;5071583;28;20424;-75
2022/10/03 13:05:57;;;;;;;0.90;0.90;;;18.90;99.90;;;;;;5071229;28;20759;-75
2022/10/03 13:08:45;;;;;;;0.80;0.80;;;19.30;99.90;;;;;;5072297;28;20431;-77
2022/10/03 13:11:31;;;;;;;0.70;0.70;;;19.40;99.90;;;;;;5072157;28;20427;-77
2022/10/03 13:14:19;;;;;;;0.70;0.70;;;19.30;99.90;;;;;;5071531;28;20924;-76
2022/10/03 13:16:58;;;;;;;1.20;1.00;;;19.40;99.90;;;;;;5071925;28;20454;-76
2022/10/03 13:19:37;;;;;;;0.65;0.65;;;19.40;99.90;;;;;;5071500;28;20428;-75
2022/10/03 13:22:28;;;;;;;1.15;0.65;;;19.50;99.90;;;;;;5071554;28;20893;-74
2022/10/03 13:25:07;;;;;;;0.80;0.80;;;19.60;99.90;;;;;;5071489;28;20427;-74
2022/10/03 13:27:39;;;;;;;1.90;1.05;;;19.90;99.90;;;;;;5071665;28;21123;-77
2022/10/03 13:30:19;;;;;;;1.20;0.85;;;20.20;99.90;;;;;;5071354;28;20434;-75
2022/10/03 13:33:14;;;;;;;0.57;0.52;;;21.20;99.90;;;;;;5071434;28;20852;-73
2022/10/03 13:36:08;;;;;;;0.60;0.60;;;21.80;99.90;;;;;;5069972;28;20451;-75
2022/10/03 13:38:47;;;;;;;0.60;0.60;;;22.00;99.90;;;;;;5051223;28;20512;-74
2022/10/03 13:41:29;;;;;;;0.70;0.70;;;21.80;99.90;;;;;;5049774;28;20433;-75
2022/10/03 13:44:09;;;;;;;0.88;0.80;;;21.60;99.90;;;;;;5050737;28;20461;-73
2022/10/03 13:46:53;;;;;;;0.85;0.85;;;21.30;99.90;;;;;;5051040;28;20937;-75
2022/10/03 13:49:33;;;;;;;0.60;0.60;;;20.70;99.90;;;;;;5050787;28;20479;-73
2022/10/03 13:52:21;;;;;;;0.95;0.95;;;20.30;99.90;;;;;;5050597;28;20931;-73
2022/10/03 13:55:17;;;;;;;0.60;0.60;;;19.70;99.90;;;;;;5050249;28;20452;-73
2022/10/03 13:58:05;;;;;;;0.73;0.73;;;19.30;99.90;;;;;;5050347;28;20869;-73
2022/10/03 14:00:46;;;;;;;0.68;0.68;;;19.00;99.90;;;;;;5051480;28;20429;-74
2022/10/03 14:03:26;;;;;;;1.60;0.80;;;18.80;99.90;;;;;;5051703;28;20429;-74
2022/10/03 14:06:23;;;;;;;0.77;0.77;;;18.70;99.90;;;;;;5052020;28;20448;-74
2022/10/03 14:09:20;;;;;;;1.10;1.00;;;18.60;99.90;;;;;;5052855;28;20440;-73
2022/10/03 14:12:22;;;;;;;0.80;0.80;;;18.50;99.90;;;;;;5049824;28;20436;-74
2022/10/03 14:15:44;;;;;;;1.02;0.77;;;18.30;99.90;;;;;;5050785;28;20992;-73
2022/10/03 14:18:43;;;;;;;1.40;1.00;;;18.20;99.90;;;;;;5050085;28;20429;-74
2022/10/03 14:21:24;;;;;;;0.73;0.73;;;18.00;99.90;;;;;;5050412;28;20478;-74
2022/10/03 14:24:09;;;;;;;0.73;0.73;;;17.80;99.90;;;;;;5050720;28;20429;-76
2022/10/03 14:26:47;;;;;;;0.90;0.90;;;17.80;99.90;;;;;;5051097;28;20429;-74
2022/10/03 14:29:27;;;;;;;0.80;0.80;;;17.80;99.90;;;;;;5049825;28;20492;-77
2022/10/03 14:32:29;;;;;;;0.77;0.77;;;17.90;99.90;;;;;;5050633;28;20429;-75
2022/10/03 14:35:26;;;;;;;1.80;0.90;;;18.00;99.90;;;;;;5011738;28;20450;-76
2022/10/03 14:38:17;;;;;;;1.85;0.75;;;18.20;99.90;;;;;;5027792;28;20821;-73
2022/10/03 14:41:04;;;;;;;0.60;0.60;;;18.30;99.90;;;;;;5011484;28;20427;-74
2022/10/03 14:43:56;;;;;;;1.27;0.90;;;18.30;99.90;;;;;;5026980;28;20430;-73
2022/10/03 14:46:30;;;;;;;0.98;0.80;;;18.20;99.90;;;;;;5027336;28;20431;-73
2022/10/03 14:49:02;;;;;;;0.75;0.68;;;18.10;99.90;;;;;;5027441;28;20427;-74
2022/10/03 14:51:46;;;;;;;2.80;0.80;;;18.10;99.90;;;;;;5027639;28;20427;-74